Ruili, China
Current Conditions -  °F | °C
As of 6:30 PM on Saturday 25 Oct 2014 (Local Time) from VYMD Reporting Station
Few Clouds Few Clouds  
Wind Chill: 86°   Ceiling: Unl
Heat Index: 95°   Visibility: 5mi
Dew Point: 75°   Wind: 0mph
Humidity: 70%   Direction: NA
Pressure: 29.83"   Gusts: NA
Location:  24.02°N, 97.83°E
Report Text: VYMD 251030Z 00000KT 8000 FEW035TCU 30/24 Q1010
Loading
Personal Weather Stations






























Interactive Weather Map
Tropical Storm Tracking
New forecast layout! Learn more

10-Day Weather Forecast

Advertisements
Track Severe Weather on mobile